sensor_id;sensor_type;location;lat;lon;timestamp;P1;durP1;ratioP1;P2;durP2;ratioP2
43160;SDS011;40968;52.342;5.528;2022-10-31T00:01:44;22.98;;;7.78;;
43160;SDS011;40968;52.342;5.528;2022-10-31T00:04:10;16.23;;;5.43;;
43160;SDS011;40968;52.342;5.528;2022-10-31T00:06:37;17.38;;;6.65;;
43160;SDS011;40968;52.342;5.528;2022-10-31T00:09:03;18.80;;;8.05;;
43160;SDS011;40968;52.342;5.528;2022-10-31T00:11:30;18.55;;;7.70;;
43160;SDS011;40968;52.342;5.528;2022-10-31T00:13:57;20.45;;;6.53;;
43160;SDS011;40968;52.342;5.528;2022-10-31T00:16:26;18.00;;;6.90;;
43160;SDS011;40968;52.342;5.528;2022-10-31T00:18:55;21.17;;;7.47;;
43160;SDS011;40968;52.342;5.528;2022-10-31T00:21:24;22.17;;;6.55;;
43160;SDS011;40968;52.342;5.528;2022-10-31T00:23:51;19.35;;;6.75;;
43160;SDS011;40968;52.342;5.528;2022-10-31T00:26:18;24.25;;;7.30;;
43160;SDS011;40968;52.342;5.528;2022-10-31T00:28:45;22.63;;;7.68;;
43160;SDS011;40968;52.342;5.528;2022-10-31T00:31:12;18.45;;;7.85;;
43160;SDS011;40968;52.342;5.528;2022-10-31T00:33:41;29.27;;;8.70;;
43160;SDS011;40968;52.342;5.528;2022-10-31T00:36:10;29.17;;;8.02;;
43160;SDS011;40968;52.342;5.528;2022-10-31T00:38:38;20.00;;;7.67;;
43160;SDS011;40968;52.342;5.528;2022-10-31T00:41:04;20.05;;;6.95;;
43160;SDS011;40968;52.342;5.528;2022-10-31T00:43:31;23.05;;;7.53;;
43160;SDS011;40968;52.342;5.528;2022-10-31T00:45:57;18.35;;;6.55;;
43160;SDS011;40968;52.342;5.528;2022-10-31T00:48:24;23.80;;;8.18;;
43160;SDS011;40968;52.342;5.528;2022-10-31T00:50:52;26.35;;;8.77;;
43160;SDS011;40968;52.342;5.528;2022-10-31T00:53:19;25.65;;;8.13;;
43160;SDS011;40968;52.342;5.528;2022-10-31T00:55:45;24.98;;;8.85;;
43160;SDS011;40968;52.342;5.528;2022-10-31T00:58:12;20.75;;;8.07;;
43160;SDS011;40968;52.342;5.528;2022-10-31T01:00:39;19.15;;;7.53;;
43160;SDS011;40968;52.342;5.528;2022-10-31T01:03:05;26.90;;;9.32;;
43160;SDS011;40968;52.342;5.528;2022-10-31T01:05:32;21.88;;;9.55;;
43160;SDS011;40968;52.342;5.528;2022-10-31T01:08:00;24.67;;;9.52;;
43160;SDS011;40968;52.342;5.528;2022-10-31T01:10:27;30.83;;;11.13;;
43160;SDS011;40968;52.342;5.528;2022-10-31T01:12:53;24.85;;;8.52;;
43160;SDS011;40968;52.342;5.528;2022-10-31T01:15:21;26.50;;;9.43;;
43160;SDS011;40968;52.342;5.528;2022-10-31T01:17:48;37.50;;;9.82;;
43160;SDS011;40968;52.342;5.528;2022-10-31T01:20:15;25.38;;;9.55;;
43160;SDS011;40968;52.342;5.528;2022-10-31T01:22:43;25.88;;;9.68;;
43160;SDS011;40968;52.342;5.528;2022-10-31T01:25:11;25.98;;;9.25;;
43160;SDS011;40968;52.342;5.528;2022-10-31T01:27:37;25.05;;;9.57;;
43160;SDS011;40968;52.342;5.528;2022-10-31T01:30:04;22.27;;;8.40;;
43160;SDS011;40968;52.342;5.528;2022-10-31T01:32:32;22.77;;;8.82;;
43160;SDS011;40968;52.342;5.528;2022-10-31T01:34:58;27.88;;;9.07;;
43160;SDS011;40968;52.342;5.528;2022-10-31T01:37:25;25.10;;;9.18;;
43160;SDS011;40968;52.342;5.528;2022-10-31T01:39:52;31.50;;;9.85;;
43160;SDS011;40968;52.342;5.528;2022-10-31T01:42:20;26.08;;;8.30;;
43160;SDS011;40968;52.342;5.528;2022-10-31T01:44:50;20.52;;;8.77;;
43160;SDS011;40968;52.342;5.528;2022-10-31T01:47:19;23.40;;;8.65;;
43160;SDS011;40968;52.342;5.528;2022-10-31T01:49:53;21.67;;;8.85;;
43160;SDS011;40968;52.342;5.528;2022-10-31T01:52:23;22.80;;;8.10;;
43160;SDS011;40968;52.342;5.528;2022-10-31T01:54:53;27.58;;;9.68;;
43160;SDS011;40968;52.342;5.528;2022-10-31T01:57:27;37.40;;;10.88;;
43160;SDS011;40968;52.342;5.528;2022-10-31T01:59:57;26.20;;;8.07;;
43160;SDS011;40968;52.342;5.528;2022-10-31T02:02:27;24.70;;;9.20;;
43160;SDS011;40968;52.342;5.528;2022-10-31T02:04:56;29.58;;;10.20;;
43160;SDS011;40968;52.342;5.528;2022-10-31T02:07:27;31.02;;;8.95;;
43160;SDS011;40968;52.342;5.528;2022-10-31T02:09:58;28.98;;;10.35;;
43160;SDS011;40968;52.342;5.528;2022-10-31T02:12:28;25.95;;;9.25;;
43160;SDS011;40968;52.342;5.528;2022-10-31T02:14:56;28.30;;;10.32;;
43160;SDS011;40968;52.342;5.528;2022-10-31T02:17:22;21.75;;;9.68;;
43160;SDS011;40968;52.342;5.528;2022-10-31T02:19:51;25.35;;;9.88;;
43160;SDS011;40968;52.342;5.528;2022-10-31T02:22:21;29.63;;;11.32;;
43160;SDS011;40968;52.342;5.528;2022-10-31T02:24:59;21.23;;;8.90;;
43160;SDS011;40968;52.342;5.528;2022-10-31T02:27:56;24.38;;;9.35;;
43160;SDS011;40968;52.342;5.528;2022-10-31T02:30:37;18.83;;;8.27;;
43160;SDS011;40968;52.342;5.528;2022-10-31T02:33:16;26.88;;;9.90;;
43160;SDS011;40968;52.342;5.528;2022-10-31T02:35:54;27.05;;;9.05;;
43160;SDS011;40968;52.342;5.528;2022-10-31T02:38:29;24.02;;;7.72;;
43160;SDS011;40968;52.342;5.528;2022-10-31T02:41:06;17.83;;;6.90;;
43160;SDS011;40968;52.342;5.528;2022-10-31T02:43:43;25.17;;;8.77;;
43160;SDS011;40968;52.342;5.528;2022-10-31T02:46:23;20.70;;;7.70;;
43160;SDS011;40968;52.342;5.528;2022-10-31T02:48:56;25.67;;;7.68;;
43160;SDS011;40968;52.342;5.528;2022-10-31T02:51:28;16.50;;;6.45;;
43160;SDS011;40968;52.342;5.528;2022-10-31T02:53:55;30.30;;;10.20;;
43160;SDS011;40968;52.342;5.528;2022-10-31T02:56:22;27.08;;;9.80;;
43160;SDS011;40968;52.342;5.528;2022-10-31T02:58:49;22.52;;;8.88;;
43160;SDS011;40968;52.342;5.528;2022-10-31T03:01:21;35.33;;;9.18;;
43160;SDS011;40968;52.342;5.528;2022-10-31T03:04:02;21.65;;;8.52;;
43160;SDS011;40968;52.342;5.528;2022-10-31T03:06:41;29.05;;;8.60;;
43160;SDS011;40968;52.342;5.528;2022-10-31T03:09:16;26.17;;;8.57;;
43160;SDS011;40968;52.342;5.528;2022-10-31T03:11:50;20.35;;;8.07;;
43160;SDS011;40968;52.342;5.528;2022-10-31T03:14:24;21.98;;;8.15;;
43160;SDS011;40968;52.342;5.528;2022-10-31T03:16:59;23.15;;;7.47;;
43160;SDS011;40968;52.342;5.528;2022-10-31T03:19:32;17.35;;;7.88;;
43160;SDS011;40968;52.342;5.528;2022-10-31T03:22:04;20.00;;;7.50;;
43160;SDS011;40968;52.342;5.528;2022-10-31T03:24:38;23.42;;;8.50;;
43160;SDS011;40968;52.342;5.528;2022-10-31T03:27:06;22.40;;;8.40;;
43160;SDS011;40968;52.342;5.528;2022-10-31T03:29:36;21.25;;;9.48;;
43160;SDS011;40968;52.342;5.528;2022-10-31T03:32:05;26.98;;;10.13;;
43160;SDS011;40968;52.342;5.528;2022-10-31T03:34:36;29.08;;;10.57;;
43160;SDS011;40968;52.342;5.528;2022-10-31T03:37:06;30.02;;;11.40;;
43160;SDS011;40968;52.342;5.528;2022-10-31T03:39:36;35.35;;;12.30;;
43160;SDS011;40968;52.342;5.528;2022-10-31T03:42:05;29.77;;;11.77;;
43160;SDS011;40968;52.342;5.528;2022-10-31T03:44:35;35.53;;;12.68;;
43160;SDS011;40968;52.342;5.528;2022-10-31T03:47:05;33.15;;;11.13;;
43160;SDS011;40968;52.342;5.528;2022-10-31T03:49:31;29.42;;;11.68;;
43160;SDS011;40968;52.342;5.528;2022-10-31T03:52:01;39.08;;;12.40;;
43160;SDS011;40968;52.342;5.528;2022-10-31T03:54:34;39.90;;;11.70;;
43160;SDS011;40968;52.342;5.528;2022-10-31T03:57:07;31.70;;;12.02;;
43160;SDS011;40968;52.342;5.528;2022-10-31T03:59:41;31.92;;;11.60;;
43160;SDS011;40968;52.342;5.528;2022-10-31T04:02:11;26.13;;;10.88;;
43160;SDS011;40968;52.342;5.528;2022-10-31T04:04:42;29.33;;;10.57;;
43160;SDS011;40968;52.342;5.528;2022-10-31T04:07:11;31.15;;;12.10;;
43160;SDS011;40968;52.342;5.528;2022-10-31T04:09:40;31.83;;;12.13;;
43160;SDS011;40968;52.342;5.528;2022-10-31T04:12:10;34.13;;;11.30;;
43160;SDS011;40968;52.342;5.528;2022-10-31T04:14:40;27.97;;;11.60;;
43160;SDS011;40968;52.342;5.528;2022-10-31T04:17:10;30.30;;;11.68;;
43160;SDS011;40968;52.342;5.528;2022-10-31T04:19:39;29.08;;;11.23;;
43160;SDS011;40968;52.342;5.528;2022-10-31T04:22:06;30.33;;;11.35;;
43160;SDS011;40968;52.342;5.528;2022-10-31T04:24:34;25.27;;;11.32;;
43160;SDS011;40968;52.342;5.528;2022-10-31T04:27:01;36.88;;;12.77;;
43160;SDS011;40968;52.342;5.528;2022-10-31T04:29:28;25.25;;;10.70;;
43160;SDS011;40968;52.342;5.528;2022-10-31T04:31:55;27.23;;;12.27;;
43160;SDS011;40968;52.342;5.528;2022-10-31T04:34:21;29.17;;;11.55;;
43160;SDS011;40968;52.342;5.528;2022-10-31T04:36:48;31.55;;;12.25;;
43160;SDS011;40968;52.342;5.528;2022-10-31T04:39:14;34.97;;;12.90;;
43160;SDS011;40968;52.342;5.528;2022-10-31T04:41:42;40.50;;;12.00;;
43160;SDS011;40968;52.342;5.528;2022-10-31T04:44:09;34.90;;;13.43;;
43160;SDS011;40968;52.342;5.528;2022-10-31T04:46:35;33.50;;;13.27;;
43160;SDS011;40968;52.342;5.528;2022-10-31T04:49:02;34.45;;;14.13;;
43160;SDS011;40968;52.342;5.528;2022-10-31T04:51:28;39.42;;;14.15;;
43160;SDS011;40968;52.342;5.528;2022-10-31T04:53:55;36.38;;;14.52;;
43160;SDS011;40968;52.342;5.528;2022-10-31T04:56:22;29.88;;;13.05;;
43160;SDS011;40968;52.342;5.528;2022-10-31T04:58:49;29.23;;;12.00;;
43160;SDS011;40968;52.342;5.528;2022-10-31T05:01:16;36.75;;;13.98;;
43160;SDS011;40968;52.342;5.528;2022-10-31T05:03:43;34.25;;;13.48;;
43160;SDS011;40968;52.342;5.528;2022-10-31T05:06:09;34.63;;;11.98;;
43160;SDS011;40968;52.342;5.528;2022-10-31T05:08:36;38.00;;;13.80;;
43160;SDS011;40968;52.342;5.528;2022-10-31T05:11:03;38.47;;;13.82;;
43160;SDS011;40968;52.342;5.528;2022-10-31T05:13:30;31.85;;;12.25;;
43160;SDS011;40968;52.342;5.528;2022-10-31T05:15:58;37.65;;;13.02;;
43160;SDS011;40968;52.342;5.528;2022-10-31T05:18:24;33.40;;;13.15;;
43160;SDS011;40968;52.342;5.528;2022-10-31T05:20:51;33.08;;;14.50;;
43160;SDS011;40968;52.342;5.528;2022-10-31T05:23:17;35.38;;;14.25;;
43160;SDS011;40968;52.342;5.528;2022-10-31T05:25:44;31.98;;;12.90;;
43160;SDS011;40968;52.342;5.528;2022-10-31T05:28:11;30.60;;;10.75;;
43160;SDS011;40968;52.342;5.528;2022-10-31T05:30:37;28.65;;;12.40;;
43160;SDS011;40968;52.342;5.528;2022-10-31T05:33:05;27.08;;;10.82;;
43160;SDS011;40968;52.342;5.528;2022-10-31T05:35:32;30.98;;;12.93;;
43160;SDS011;40968;52.342;5.528;2022-10-31T05:37:59;28.73;;;12.93;;
43160;SDS011;40968;52.342;5.528;2022-10-31T05:40:27;32.10;;;10.80;;
43160;SDS011;40968;52.342;5.528;2022-10-31T05:42:54;31.42;;;11.77;;
43160;SDS011;40968;52.342;5.528;2022-10-31T05:45:23;19.95;;;8.57;;
43160;SDS011;40968;52.342;5.528;2022-10-31T05:47:50;34.60;;;11.07;;
43160;SDS011;40968;52.342;5.528;2022-10-31T05:50:18;27.75;;;11.48;;
43160;SDS011;40968;52.342;5.528;2022-10-31T05:52:45;22.27;;;8.45;;
43160;SDS011;40968;52.342;5.528;2022-10-31T05:55:12;33.67;;;12.18;;
43160;SDS011;40968;52.342;5.528;2022-10-31T05:57:38;31.10;;;11.95;;
43160;SDS011;40968;52.342;5.528;2022-10-31T06:00:05;25.95;;;12.30;;
43160;SDS011;40968;52.342;5.528;2022-10-31T06:02:33;28.25;;;11.02;;
43160;SDS011;40968;52.342;5.528;2022-10-31T06:04:59;28.30;;;11.40;;
43160;SDS011;40968;52.342;5.528;2022-10-31T06:07:31;20.67;;;8.15;;
43160;SDS011;40968;52.342;5.528;2022-10-31T06:09:58;23.35;;;9.18;;
43160;SDS011;40968;52.342;5.528;2022-10-31T06:12:25;21.50;;;10.25;;
43160;SDS011;40968;52.342;5.528;2022-10-31T06:14:52;23.05;;;9.45;;
43160;SDS011;40968;52.342;5.528;2022-10-31T06:17:18;25.27;;;10.55;;
43160;SDS011;40968;52.342;5.528;2022-10-31T06:19:45;52.42;;;14.50;;
43160;SDS011;40968;52.342;5.528;2022-10-31T06:22:11;40.58;;;13.82;;
43160;SDS011;40968;52.342;5.528;2022-10-31T06:24:39;38.85;;;15.32;;
43160;SDS011;40968;52.342;5.528;2022-10-31T06:27:06;32.63;;;13.30;;
43160;SDS011;40968;52.342;5.528;2022-10-31T06:29:32;34.78;;;12.65;;
43160;SDS011;40968;52.342;5.528;2022-10-31T06:31:59;34.83;;;13.68;;
43160;SDS011;40968;52.342;5.528;2022-10-31T06:34:25;37.58;;;13.57;;
43160;SDS011;40968;52.342;5.528;2022-10-31T06:36:52;34.90;;;13.98;;
43160;SDS011;40968;52.342;5.528;2022-10-31T06:39:18;39.88;;;14.20;;
43160;SDS011;40968;52.342;5.528;2022-10-31T06:41:48;36.70;;;16.02;;
43160;SDS011;40968;52.342;5.528;2022-10-31T06:44:14;40.92;;;15.90;;
43160;SDS011;40968;52.342;5.528;2022-10-31T06:46:41;53.08;;;17.35;;
43160;SDS011;40968;52.342;5.528;2022-10-31T06:49:07;50.25;;;17.00;;
43160;SDS011;40968;52.342;5.528;2022-10-31T06:51:34;38.35;;;15.20;;
43160;SDS011;40968;52.342;5.528;2022-10-31T06:54:01;45.30;;;17.45;;
43160;SDS011;40968;52.342;5.528;2022-10-31T06:56:27;41.30;;;17.48;;
43160;SDS011;40968;52.342;5.528;2022-10-31T06:58:55;42.35;;;17.60;;
43160;SDS011;40968;52.342;5.528;2022-10-31T07:01:22;50.17;;;20.42;;
43160;SDS011;40968;52.342;5.528;2022-10-31T07:03:48;38.80;;;16.63;;
43160;SDS011;40968;52.342;5.528;2022-10-31T07:06:15;55.00;;;17.65;;
43160;SDS011;40968;52.342;5.528;2022-10-31T07:08:42;45.95;;;18.50;;
43160;SDS011;40968;52.342;5.528;2022-10-31T07:11:08;39.47;;;16.55;;
43160;SDS011;40968;52.342;5.528;2022-10-31T07:13:35;46.55;;;16.48;;
43160;SDS011;40968;52.342;5.528;2022-10-31T07:16:03;58.72;;;18.40;;
43160;SDS011;40968;52.342;5.528;2022-10-31T07:18:32;48.33;;;19.23;;
43160;SDS011;40968;52.342;5.528;2022-10-31T07:20:59;49.55;;;18.63;;
43160;SDS011;40968;52.342;5.528;2022-10-31T07:23:26;45.88;;;18.80;;
43160;SDS011;40968;52.342;5.528;2022-10-31T07:25:54;40.10;;;16.42;;
43160;SDS011;40968;52.342;5.528;2022-10-31T07:28:21;60.38;;;22.02;;
43160;SDS011;40968;52.342;5.528;2022-10-31T07:30:49;55.35;;;22.70;;
43160;SDS011;40968;52.342;5.528;2022-10-31T07:33:17;57.42;;;21.70;;
43160;SDS011;40968;52.342;5.528;2022-10-31T07:35:44;66.28;;;23.33;;
43160;SDS011;40968;52.342;5.528;2022-10-31T07:38:11;55.85;;;20.95;;
43160;SDS011;40968;52.342;5.528;2022-10-31T07:40:40;60.63;;;19.80;;
43160;SDS011;40968;52.342;5.528;2022-10-31T07:43:07;72.18;;;22.73;;
43160;SDS011;40968;52.342;5.528;2022-10-31T07:45:34;63.42;;;22.60;;
43160;SDS011;40968;52.342;5.528;2022-10-31T07:48:01;49.42;;;19.25;;
43160;SDS011;40968;52.342;5.528;2022-10-31T07:50:30;59.17;;;20.98;;
43160;SDS011;40968;52.342;5.528;2022-10-31T07:52:59;53.22;;;21.75;;
43160;SDS011;40968;52.342;5.528;2022-10-31T07:55:26;57.03;;;20.85;;
43160;SDS011;40968;52.342;5.528;2022-10-31T07:57:57;52.92;;;21.55;;
43160;SDS011;40968;52.342;5.528;2022-10-31T08:00:25;63.05;;;20.88;;
43160;SDS011;40968;52.342;5.528;2022-10-31T08:02:58;52.63;;;22.05;;
43160;SDS011;40968;52.342;5.528;2022-10-31T08:05:25;61.33;;;21.27;;
43160;SDS011;40968;52.342;5.528;2022-10-31T08:07:54;51.72;;;19.80;;
43160;SDS011;40968;52.342;5.528;2022-10-31T08:10:20;59.30;;;21.42;;
43160;SDS011;40968;52.342;5.528;2022-10-31T08:12:54;63.63;;;21.17;;
43160;SDS011;40968;52.342;5.528;2022-10-31T08:15:21;53.88;;;20.95;;
43160;SDS011;40968;52.342;5.528;2022-10-31T08:17:48;52.42;;;20.42;;
43160;SDS011;40968;52.342;5.528;2022-10-31T08:20:14;49.47;;;19.30;;
43160;SDS011;40968;52.342;5.528;2022-10-31T08:22:41;60.83;;;20.65;;
43160;SDS011;40968;52.342;5.528;2022-10-31T08:25:09;54.15;;;18.95;;
43160;SDS011;40968;52.342;5.528;2022-10-31T08:27:36;42.47;;;15.82;;
43160;SDS011;40968;52.342;5.528;2022-10-31T08:30:02;52.22;;;18.92;;
43160;SDS011;40968;52.342;5.528;2022-10-31T08:32:29;48.00;;;18.15;;
43160;SDS011;40968;52.342;5.528;2022-10-31T08:34:56;54.88;;;19.65;;
43160;SDS011;40968;52.342;5.528;2022-10-31T08:37:23;52.42;;;19.10;;
43160;SDS011;40968;52.342;5.528;2022-10-31T08:39:50;53.17;;;18.48;;
43160;SDS011;40968;52.342;5.528;2022-10-31T08:42:18;51.80;;;20.23;;
43160;SDS011;40968;52.342;5.528;2022-10-31T08:44:44;53.78;;;18.70;;
43160;SDS011;40968;52.342;5.528;2022-10-31T08:47:11;54.78;;;17.75;;
43160;SDS011;40968;52.342;5.528;2022-10-31T08:49:37;49.95;;;17.52;;
43160;SDS011;40968;52.342;5.528;2022-10-31T08:52:04;47.70;;;16.20;;
43160;SDS011;40968;52.342;5.528;2022-10-31T08:54:31;58.97;;;18.30;;
43160;SDS011;40968;52.342;5.528;2022-10-31T08:56:57;51.10;;;16.25;;
43160;SDS011;40968;52.342;5.528;2022-10-31T08:59:25;46.55;;;16.88;;
43160;SDS011;40968;52.342;5.528;2022-10-31T09:01:52;48.00;;;16.55;;
43160;SDS011;40968;52.342;5.528;2022-10-31T09:04:18;39.50;;;16.23;;
43160;SDS011;40968;52.342;5.528;2022-10-31T09:06:45;45.10;;;15.18;;
43160;SDS011;40968;52.342;5.528;2022-10-31T09:09:12;44.78;;;16.88;;
43160;SDS011;40968;52.342;5.528;2022-10-31T09:11:38;54.55;;;16.83;;
43160;SDS011;40968;52.342;5.528;2022-10-31T09:14:05;43.63;;;16.05;;
43160;SDS011;40968;52.342;5.528;2022-10-31T09:16:33;43.72;;;16.13;;
43160;SDS011;40968;52.342;5.528;2022-10-31T09:19:00;42.08;;;15.32;;
43160;SDS011;40968;52.342;5.528;2022-10-31T09:21:26;43.30;;;15.43;;
43160;SDS011;40968;52.342;5.528;2022-10-31T09:23:53;40.15;;;15.05;;
43160;SDS011;40968;52.342;5.528;2022-10-31T09:26:19;51.92;;;16.17;;
43160;SDS011;40968;52.342;5.528;2022-10-31T09:28:46;42.63;;;15.45;;
43160;SDS011;40968;52.342;5.528;2022-10-31T09:31:13;54.50;;;15.80;;
43160;SDS011;40968;52.342;5.528;2022-10-31T09:33:41;53.72;;;16.60;;
43160;SDS011;40968;52.342;5.528;2022-10-31T09:36:07;47.17;;;15.50;;
43160;SDS011;40968;52.342;5.528;2022-10-31T09:38:34;45.28;;;15.23;;
43160;SDS011;40968;52.342;5.528;2022-10-31T09:41:02;39.03;;;14.65;;
43160;SDS011;40968;52.342;5.528;2022-10-31T09:43:44;41.50;;;13.45;;
43160;SDS011;40968;52.342;5.528;2022-10-31T09:46:24;38.55;;;12.55;;
43160;SDS011;40968;52.342;5.528;2022-10-31T09:49:07;40.78;;;12.52;;
43160;SDS011;40968;52.342;5.528;2022-10-31T09:51:51;31.20;;;11.80;;
43160;SDS011;40968;52.342;5.528;2022-10-31T09:54:26;34.65;;;11.75;;
43160;SDS011;40968;52.342;5.528;2022-10-31T09:56:58;39.38;;;11.27;;
43160;SDS011;40968;52.342;5.528;2022-10-31T09:59:27;28.27;;;10.70;;
43160;SDS011;40968;52.342;5.528;2022-10-31T10:01:56;43.70;;;9.93;;
43160;SDS011;40968;52.342;5.528;2022-10-31T10:04:32;30.30;;;9.93;;
43160;SDS011;40968;52.342;5.528;2022-10-31T10:07:07;27.20;;;9.50;;
43160;SDS011;40968;52.342;5.528;2022-10-31T10:09:40;27.48;;;8.38;;
43160;SDS011;40968;52.342;5.528;2022-10-31T10:12:09;23.88;;;8.68;;
43160;SDS011;40968;52.342;5.528;2022-10-31T10:14:47;23.88;;;8.40;;
43160;SDS011;40968;52.342;5.528;2022-10-31T10:17:26;26.70;;;9.00;;
43160;SDS011;40968;52.342;5.528;2022-10-31T10:20:16;24.58;;;8.55;;
43160;SDS011;40968;52.342;5.528;2022-10-31T10:22:52;24.70;;;8.07;;
43160;SDS011;40968;52.342;5.528;2022-10-31T10:25:28;24.88;;;7.55;;
43160;SDS011;40968;52.342;5.528;2022-10-31T10:28:03;15.23;;;6.43;;
43160;SDS011;40968;52.342;5.528;2022-10-31T10:30:39;17.85;;;6.55;;
43160;SDS011;40968;52.342;5.528;2022-10-31T10:33:09;20.65;;;6.43;;
43160;SDS011;40968;52.342;5.528;2022-10-31T10:35:43;23.25;;;7.25;;
43160;SDS011;40968;52.342;5.528;2022-10-31T10:38:15;21.70;;;6.47;;
43160;SDS011;40968;52.342;5.528;2022-10-31T10:40:46;17.15;;;5.97;;
43160;SDS011;40968;52.342;5.528;2022-10-31T10:43:21;14.55;;;5.45;;
43160;SDS011;40968;52.342;5.528;2022-10-31T10:45:56;19.88;;;5.95;;
43160;SDS011;40968;52.342;5.528;2022-10-31T10:48:47;17.25;;;6.28;;
43160;SDS011;40968;52.342;5.528;2022-10-31T10:51:23;17.55;;;5.97;;
43160;SDS011;40968;52.342;5.528;2022-10-31T10:54:06;18.05;;;6.45;;
43160;SDS011;40968;52.342;5.528;2022-10-31T10:56:46;18.88;;;6.03;;
43160;SDS011;40968;52.342;5.528;2022-10-31T10:59:21;19.02;;;6.68;;
43160;SDS011;40968;52.342;5.528;2022-10-31T11:01:48;18.48;;;6.53;;
43160;SDS011;40968;52.342;5.528;2022-10-31T11:04:28;27.42;;;7.85;;
43160;SDS011;40968;52.342;5.528;2022-10-31T11:07:02;31.70;;;10.17;;
43160;SDS011;40968;52.342;5.528;2022-10-31T11:09:31;24.70;;;7.97;;
43160;SDS011;40968;52.342;5.528;2022-10-31T11:12:00;27.17;;;9.63;;
43160;SDS011;40968;52.342;5.528;2022-10-31T11:14:33;31.80;;;9.48;;
43160;SDS011;40968;52.342;5.528;2022-10-31T11:17:09;31.80;;;10.35;;
43160;SDS011;40968;52.342;5.528;2022-10-31T11:19:43;29.25;;;9.25;;
43160;SDS011;40968;52.342;5.528;2022-10-31T11:22:14;35.88;;;10.05;;
43160;SDS011;40968;52.342;5.528;2022-10-31T11:24:43;33.05;;;9.38;;
43160;SDS011;40968;52.342;5.528;2022-10-31T11:27:14;29.77;;;8.80;;
43160;SDS011;40968;52.342;5.528;2022-10-31T11:29:42;26.85;;;8.00;;
43160;SDS011;40968;52.342;5.528;2022-10-31T11:32:15;25.42;;;7.32;;
43160;SDS011;40968;52.342;5.528;2022-10-31T11:34:45;23.40;;;6.40;;
43160;SDS011;40968;52.342;5.528;2022-10-31T11:37:18;20.10;;;6.90;;
43160;SDS011;40968;52.342;5.528;2022-10-31T11:39:49;22.50;;;6.30;;
43160;SDS011;40968;52.342;5.528;2022-10-31T11:42:19;20.15;;;6.68;;
43160;SDS011;40968;52.342;5.528;2022-10-31T11:44:48;28.20;;;8.10;;
43160;SDS011;40968;52.342;5.528;2022-10-31T11:47:16;22.13;;;7.00;;
43160;SDS011;40968;52.342;5.528;2022-10-31T11:52:15;20.38;;;6.65;;
43160;SDS011;40968;52.342;5.528;2022-10-31T11:54:46;23.15;;;6.20;;
43160;SDS011;40968;52.342;5.528;2022-10-31T11:57:21;21.40;;;6.45;;
43160;SDS011;40968;52.342;5.528;2022-10-31T11:59:51;26.33;;;7.93;;
43160;SDS011;40968;52.342;5.528;2022-10-31T12:02:19;24.45;;;7.80;;
43160;SDS011;40968;52.342;5.528;2022-10-31T12:04:48;30.48;;;9.35;;
43160;SDS011;40968;52.342;5.528;2022-10-31T12:07:21;29.90;;;8.18;;
43160;SDS011;40968;52.342;5.528;2022-10-31T12:09:48;31.17;;;9.63;;
43160;SDS011;40968;52.342;5.528;2022-10-31T12:12:25;35.55;;;9.88;;
43160;SDS011;40968;52.342;5.528;2022-10-31T12:15:05;29.38;;;10.00;;
43160;SDS011;40968;52.342;5.528;2022-10-31T12:17:44;36.20;;;11.45;;
43160;SDS011;40968;52.342;5.528;2022-10-31T12:20:20;40.20;;;11.75;;
43160;SDS011;40968;52.342;5.528;2022-10-31T12:22:57;45.80;;;12.07;;
43160;SDS011;40968;52.342;5.528;2022-10-31T12:25:33;34.38;;;11.05;;
43160;SDS011;40968;52.342;5.528;2022-10-31T12:28:32;35.20;;;10.95;;
43160;SDS011;40968;52.342;5.528;2022-10-31T12:31:14;40.75;;;11.82;;
43160;SDS011;40968;52.342;5.528;2022-10-31T12:33:51;37.10;;;10.85;;
43160;SDS011;40968;52.342;5.528;2022-10-31T12:36:29;41.22;;;11.90;;
43160;SDS011;40968;52.342;5.528;2022-10-31T12:39:11;34.60;;;11.68;;
43160;SDS011;40968;52.342;5.528;2022-10-31T12:41:51;36.05;;;12.63;;
43160;SDS011;40968;52.342;5.528;2022-10-31T12:44:37;33.22;;;11.82;;
43160;SDS011;40968;52.342;5.528;2022-10-31T12:47:30;37.13;;;12.43;;
43160;SDS011;40968;52.342;5.528;2022-10-31T12:50:22;43.38;;;13.35;;
43160;SDS011;40968;52.342;5.528;2022-10-31T12:52:58;39.17;;;13.35;;
43160;SDS011;40968;52.342;5.528;2022-10-31T12:55:40;44.33;;;13.55;;
43160;SDS011;40968;52.342;5.528;2022-10-31T12:58:14;39.38;;;12.70;;
43160;SDS011;40968;52.342;5.528;2022-10-31T13:00:48;42.17;;;14.77;;
43160;SDS011;40968;52.342;5.528;2022-10-31T13:03:25;42.85;;;14.18;;
43160;SDS011;40968;52.342;5.528;2022-10-31T13:05:59;46.97;;;14.20;;
43160;SDS011;40968;52.342;5.528;2022-10-31T13:08:33;43.75;;;13.90;;
43160;SDS011;40968;52.342;5.528;2022-10-31T13:11:07;47.83;;;14.88;;
43160;SDS011;40968;52.342;5.528;2022-10-31T13:13:41;38.30;;;12.85;;
43160;SDS011;40968;52.342;5.528;2022-10-31T13:16:12;51.63;;;15.32;;
43160;SDS011;40968;52.342;5.528;2022-10-31T13:18:43;53.92;;;15.48;;
43160;SDS011;40968;52.342;5.528;2022-10-31T13:21:15;50.17;;;14.80;;
43160;SDS011;40968;52.342;5.528;2022-10-31T13:23:48;47.03;;;14.18;;
43160;SDS011;40968;52.342;5.528;2022-10-31T13:26:20;44.90;;;13.57;;
43160;SDS011;40968;52.342;5.528;2022-10-31T13:28:55;49.58;;;14.98;;
43160;SDS011;40968;52.342;5.528;2022-10-31T13:31:29;64.97;;;14.48;;
43160;SDS011;40968;52.342;5.528;2022-10-31T13:33:57;46.28;;;14.93;;
43160;SDS011;40968;52.342;5.528;2022-10-31T13:41:34;47.35;;;13.35;;
43160;SDS011;40968;52.342;5.528;2022-10-31T13:44:11;55.15;;;16.55;;
43160;SDS011;40968;52.342;5.528;2022-10-31T13:46:41;45.50;;;15.32;;
43160;SDS011;40968;52.342;5.528;2022-10-31T13:49:23;47.78;;;14.88;;
43160;SDS011;40968;52.342;5.528;2022-10-31T13:51:51;51.17;;;15.75;;
43160;SDS011;40968;52.342;5.528;2022-10-31T13:54:22;49.08;;;15.07;;
43160;SDS011;40968;52.342;5.528;2022-10-31T13:56:51;43.60;;;14.00;;
43160;SDS011;40968;52.342;5.528;2022-10-31T13:59:19;42.45;;;14.93;;
43160;SDS011;40968;52.342;5.528;2022-10-31T14:01:49;43.17;;;13.70;;
43160;SDS011;40968;52.342;5.528;2022-10-31T14:04:19;45.08;;;14.95;;
43160;SDS011;40968;52.342;5.528;2022-10-31T14:06:51;47.55;;;14.98;;
43160;SDS011;40968;52.342;5.528;2022-10-31T14:09:24;50.42;;;15.40;;
43160;SDS011;40968;52.342;5.528;2022-10-31T14:11:59;45.03;;;13.65;;
43160;SDS011;40968;52.342;5.528;2022-10-31T14:14:33;48.53;;;15.13;;
43160;SDS011;40968;52.342;5.528;2022-10-31T14:17:12;54.60;;;15.02;;
43160;SDS011;40968;52.342;5.528;2022-10-31T14:19:43;49.20;;;14.52;;
43160;SDS011;40968;52.342;5.528;2022-10-31T14:22:23;45.88;;;15.25;;
43160;SDS011;40968;52.342;5.528;2022-10-31T14:24:50;42.08;;;14.10;;
43160;SDS011;40968;52.342;5.528;2022-10-31T14:27:34;40.60;;;15.43;;
43160;SDS011;40968;52.342;5.528;2022-10-31T14:30:15;45.83;;;14.52;;
43160;SDS011;40968;52.342;5.528;2022-10-31T14:32:43;53.05;;;14.85;;
43160;SDS011;40968;52.342;5.528;2022-10-31T14:35:13;42.40;;;13.38;;
43160;SDS011;40968;52.342;5.528;2022-10-31T14:37:53;53.67;;;15.18;;
43160;SDS011;40968;52.342;5.528;2022-10-31T14:40:33;48.90;;;14.48;;
43160;SDS011;40968;52.342;5.528;2022-10-31T14:46:10;49.08;;;14.95;;
43160;SDS011;40968;52.342;5.528;2022-10-31T14:48:47;49.35;;;16.10;;
43160;SDS011;40968;52.342;5.528;2022-10-31T14:51:40;47.22;;;14.73;;
43160;SDS011;40968;52.342;5.528;2022-10-31T14:54:10;53.03;;;16.05;;
43160;SDS011;40968;52.342;5.528;2022-10-31T14:56:42;64.75;;;16.27;;